createdAt,value
2017-10-15T03:31:21.941Z,99.90
2017-10-15T03:33:49.520Z,99.90
2017-10-15T03:36:17.886Z,99.90
2017-10-15T03:38:45.485Z,99.90
2017-10-15T03:41:13.057Z,99.90
2017-10-15T03:43:40.687Z,99.50
2017-10-15T03:46:09.034Z,99.90
2017-10-15T03:48:36.609Z,99.90
2017-10-15T03:51:05.018Z,99.90
2017-10-15T03:53:32.590Z,99.90
2017-10-15T03:56:00.174Z,99.90
2017-10-15T03:58:27.793Z,99.60
2017-10-15T04:00:55.361Z,99.40
2017-10-15T04:03:22.935Z,99.50
2017-10-15T04:05:50.530Z,99.90
2017-10-15T04:08:18.105Z,99.90
2017-10-15T04:10:46.442Z,98.40
2017-10-15T04:13:14.054Z,98.40
2017-10-15T04:15:41.630Z,98.40
2017-10-15T04:18:09.202Z,98.60
2017-10-15T04:20:36.825Z,99.80
2017-10-15T04:23:05.161Z,99.90
2017-10-15T04:25:32.734Z,99.90
2017-10-15T04:28:00.366Z,99.90
2017-10-15T04:30:27.941Z,99.50
2017-10-15T04:32:55.513Z,99.10
2017-10-15T04:35:23.126Z,99.70
2017-10-15T04:37:50.701Z,99.70
2017-10-15T04:40:18.279Z,99.80
2017-10-15T04:42:45.879Z,99.80
2017-10-15T04:45:13.454Z,99.70
2017-10-15T04:47:41.026Z,99.90
2017-10-15T04:50:08.650Z,99.90
2017-10-15T04:52:36.990Z,99.90
2017-10-15T04:55:04.570Z,99.90
2017-10-15T04:57:32.969Z,99.20
2017-10-15T05:00:00.566Z,99.20
2017-10-15T05:02:28.137Z,99.20
2017-10-15T05:04:55.733Z,99.40
2017-10-15T05:07:24.070Z,99.80
2017-10-15T05:09:51.693Z,99.80
2017-10-15T05:12:19.271Z,99.50
2017-10-15T05:14:46.848Z,99.40
2017-10-15T05:17:14.466Z,99.30
2017-10-15T05:19:42.038Z,99.40
2017-10-15T05:22:09.609Z,99.50
2017-10-15T05:24:37.225Z,99.90
2017-10-15T05:27:05.566Z,99.90
2017-10-15T05:29:33.138Z,99.90
2017-10-15T05:32:00.762Z,99.90
2017-10-15T05:34:29.106Z,99.90
2017-10-15T05:36:56.678Z,99.90
2017-10-15T05:39:24.274Z,99.90
2017-10-15T05:41:51.846Z,99.90
2017-10-15T05:44:19.482Z,99.90
2017-10-15T05:46:47.203Z,99.40
2017-10-15T05:49:14.786Z,99.10
2017-10-15T05:51:42.405Z,99.00
2017-10-15T05:54:10.750Z,99.00
2017-10-15T05:56:38.330Z,99.00
2017-10-15T05:59:05.966Z,99.60
2017-10-15T06:01:33.534Z,99.10
2017-10-15T06:04:01.106Z,98.40
2017-10-15T06:06:28.706Z,98.40
2017-10-15T06:08:56.278Z,98.80
2017-10-15T06:11:23.882Z,99.40
2017-10-15T06:13:51.455Z,99.80
2017-10-15T06:16:19.817Z,99.30
2017-10-15T06:18:47.393Z,99.30
2017-10-15T06:21:15.737Z,99.90
2017-10-15T06:23:43.333Z,99.90
2017-10-15T06:26:11.672Z,99.90
2017-10-15T06:28:39.295Z,99.90
2017-10-15T06:31:06.878Z,99.90
2017-10-15T06:33:34.457Z,99.90
2017-10-15T06:36:02.829Z,99.90
2017-10-15T06:38:30.405Z,99.90
2017-10-15T06:40:58.786Z,99.80
2017-10-15T06:43:27.125Z,99.90
2017-10-15T06:45:54.693Z,99.90
2017-10-15T06:48:22.289Z,99.90
2017-10-15T06:50:50.630Z,99.90
2017-10-15T06:53:18.226Z,99.90
2017-10-15T06:55:46.610Z,99.90
2017-10-15T06:58:14.186Z,99.90
2017-10-15T07:00:41.766Z,99.90
2017-10-15T07:03:09.386Z,99.90
2017-10-15T07:05:36.966Z,99.90
2017-10-15T07:08:04.551Z,99.90
2017-10-15T07:10:32.154Z,99.90
2017-10-15T07:13:00.501Z,99.90
2017-10-15T07:15:28.106Z,99.90
2017-10-15T07:17:55.695Z,99.90
2017-10-15T07:20:23.282Z,99.90
2017-10-15T07:22:50.895Z,99.90
2017-10-15T07:25:18.478Z,99.90
2017-10-15T07:27:46.831Z,99.90
2017-10-15T07:30:14.470Z,99.90
2017-10-15T07:32:42.053Z,99.90
2017-10-15T07:35:09.638Z,99.90
2017-10-15T07:37:37.306Z,99.90
2017-10-15T07:40:04.910Z,99.90
2017-10-15T07:42:32.490Z,99.90
2017-10-15T07:45:00.115Z,99.90
2017-10-15T07:47:28.462Z,99.90
2017-10-15T07:49:56.051Z,99.90
2017-10-15T07:52:23.672Z,99.90
2017-10-15T07:54:51.262Z,99.90
2017-10-15T07:57:19.621Z,99.60
2017-10-15T07:59:48.017Z,99.50
2017-10-15T08:02:15.615Z,99.50
2017-10-15T08:04:43.258Z,99.40
2017-10-15T08:07:10.850Z,98.80
2017-10-15T08:09:38.446Z,98.70
2017-10-15T08:12:06.826Z,98.80
2017-10-15T08:14:35.237Z,98.80
2017-10-15T08:17:02.822Z,98.80
2017-10-15T08:19:30.406Z,99.00
2017-10-15T08:21:58.041Z,98.70
2017-10-15T08:24:25.634Z,98.40
2017-10-15T08:26:53.981Z,99.10
2017-10-15T08:29:21.615Z,99.10
2017-10-15T08:31:49.202Z,98.30
2017-10-15T08:34:16.789Z,98.20
2017-10-15T08:36:44.390Z,97.70
2017-10-15T08:39:11.978Z,97.40
2017-10-15T08:41:40.338Z,97.80
2017-10-15T08:44:07.974Z,97.80
2017-10-15T08:46:35.562Z,98.20
2017-10-15T08:49:03.156Z,98.10
2017-10-15T08:51:31.537Z,97.60
2017-10-15T08:53:59.122Z,97.60
2017-10-15T08:56:26.734Z,96.80
2017-10-15T08:58:54.313Z,97.10
2017-10-15T09:01:21.898Z,97.00
2017-10-15T09:03:49.510Z,96.70
2017-10-15T09:06:17.098Z,95.90
2017-10-15T09:08:45.511Z,95.10
2017-10-15T09:11:13.086Z,95.00
2017-10-15T09:13:40.662Z,94.80
2017-10-15T09:16:08.269Z,95.10
2017-10-15T09:18:35.907Z,95.20
2017-10-15T09:21:04.272Z,95.10
2017-10-15T09:23:31.860Z,95.10
2017-10-15T09:26:00.234Z,94.90
2017-10-15T09:28:28.578Z,94.40
2017-10-15T09:30:56.214Z,94.40
2017-10-15T09:33:23.798Z,94.50
2017-10-15T09:35:51.388Z,94.70
2017-10-15T09:38:19.762Z,94.30
2017-10-15T09:40:48.134Z,94.20
2017-10-15T09:43:16.510Z,94.50
2017-10-15T09:45:44.863Z,93.70
2017-10-15T09:48:12.470Z,93.70
2017-10-15T09:50:40.055Z,93.30
2017-10-15T09:53:07.718Z,93.30
2017-10-15T09:55:35.298Z,93.50
2017-10-15T09:58:02.886Z,93.30
2017-10-15T10:00:31.258Z,94.10
2017-10-15T10:02:59.608Z,93.80
2017-10-15T10:05:28.937Z,93.80
2017-10-15T10:07:57.314Z,93.20
2017-10-15T10:10:25.667Z,93.30
2017-10-15T10:12:53.293Z,93.30
2017-10-15T10:15:20.879Z,93.70
2017-10-15T10:17:48.470Z,93.70
2017-10-15T10:20:16.845Z,92.60
2017-10-15T10:22:45.190Z,92.30
2017-10-15T10:25:12.782Z,92.30
2017-10-15T10:27:41.162Z,92.60
2017-10-15T10:30:09.542Z,92.60
2017-10-15T10:32:37.918Z,93.10
2017-10-15T10:35:06.266Z,93.50
2017-10-15T10:37:33.857Z,93.50
2017-10-15T10:40:02.231Z,92.60
2017-10-15T10:42:29.838Z,92.60
2017-10-15T10:44:57.468Z,91.90
2017-10-15T10:47:25.050Z,92.20
2017-10-15T10:49:52.638Z,92.00
2017-10-15T10:52:20.255Z,91.80
2017-10-15T10:54:47.838Z,91.90
2017-10-15T10:57:15.466Z,91.70
2017-10-15T10:59:43.053Z,91.20
2017-10-15T11:02:10.634Z,91.20
2017-10-15T11:04:38.252Z,90.90
2017-10-15T11:07:05.838Z,90.30
2017-10-15T11:09:34.195Z,90.70
2017-10-15T11:12:01.812Z,90.40
2017-10-15T11:14:30.153Z,90.20
2017-10-15T11:16:57.757Z,90.20
2017-10-15T11:19:26.110Z,90.80
2017-10-15T11:21:53.693Z,90.80
2017-10-15T11:24:22.091Z,90.20
2017-10-15T11:26:49.689Z,90.20
2017-10-15T11:29:17.270Z,90.00
2017-10-15T11:31:44.898Z,90.00
2017-10-15T11:34:12.487Z,88.30
2017-10-15T11:36:40.070Z,88.70
2017-10-15T11:39:08.462Z,84.70
2017-10-15T11:41:36.042Z,84.80
2017-10-15T11:44:03.622Z,85.40
2017-10-15T11:46:31.238Z,84.20
2017-10-15T11:48:58.886Z,85.30
2017-10-15T11:51:26.493Z,85.30
2017-10-15T11:53:54.070Z,85.80
2017-10-15T11:56:21.655Z,85.20
2017-10-15T11:58:50.038Z,83.00
2017-10-15T12:01:18.390Z,84.00
2017-10-15T12:03:45.970Z,84.00
2017-10-15T12:06:14.337Z,83.90
2017-10-15T12:08:42.678Z,83.70
2017-10-15T12:11:10.307Z,83.70
2017-10-15T12:13:37.893Z,84.20
2017-10-15T12:16:05.475Z,82.80
2017-10-15T12:18:33.099Z,81.10
2017-10-15T12:21:00.714Z,81.30
2017-10-15T12:23:29.065Z,82.20
2017-10-15T12:25:56.662Z,82.20
2017-10-15T12:28:24.250Z,82.80
2017-10-15T12:30:51.837Z,84.40
2017-10-15T12:33:19.450Z,84.30
2017-10-15T12:35:47.034Z,84.10
2017-10-15T12:38:15.387Z,83.20
2017-10-15T12:40:42.986Z,83.20
2017-10-15T12:43:10.567Z,83.60
2017-10-15T12:45:38.151Z,81.70
2017-10-15T12:48:05.759Z,82.30
2017-10-15T12:50:33.338Z,83.90
2017-10-15T12:53:00.967Z,83.80
2017-10-15T12:55:28.542Z,85.80
2017-10-15T12:57:56.124Z,84.20
2017-10-15T13:00:24.555Z,84.80
2017-10-15T13:02:52.146Z,84.80
2017-10-15T13:05:19.737Z,84.10
2017-10-15T13:07:48.130Z,84.20
2017-10-15T13:10:15.707Z,84.20
2017-10-15T13:12:43.295Z,84.30
2017-10-15T13:15:10.894Z,83.90
2017-10-15T13:17:38.479Z,82.30
2017-10-15T13:20:06.086Z,83.20
2017-10-15T13:22:33.667Z,84.40
2017-10-15T13:25:02.027Z,86.00
2017-10-15T13:27:30.429Z,84.50
2017-10-15T13:29:58.011Z,84.50
2017-10-15T13:32:25.586Z,84.40
2017-10-15T13:34:53.191Z,84.50
2017-10-15T13:37:21.543Z,84.90
2017-10-15T13:39:49.122Z,84.90
2017-10-15T13:42:17.491Z,83.90
2017-10-15T13:44:45.081Z,83.80
2017-10-15T13:47:12.706Z,83.90
2017-10-15T13:49:40.286Z,84.00
2017-10-15T13:52:08.627Z,83.60
2017-10-15T13:54:36.226Z,83.60
2017-10-15T13:57:03.812Z,84.00
2017-10-15T13:59:31.418Z,84.70
2017-10-15T14:01:59.027Z,84.50
2017-10-15T14:04:26.605Z,84.70
2017-10-15T14:06:54.213Z,84.30
2017-10-15T14:09:22.557Z,85.90
2017-10-15T14:11:50.138Z,85.90
2017-10-15T14:14:18.529Z,86.10
2017-10-15T14:16:46.884Z,87.30
2017-10-15T14:19:14.457Z,87.30
2017-10-15T14:21:42.822Z,87.40
2017-10-15T14:24:10.397Z,87.40
2017-10-15T14:26:38.795Z,85.50
2017-10-15T14:29:06.374Z,85.50
2017-10-15T14:31:33.953Z,86.10
2017-10-15T14:34:01.578Z,86.40
2017-10-15T14:36:29.153Z,86.20
2017-10-15T14:38:56.733Z,86.40
2017-10-15T14:41:24.334Z,87.40
2017-10-15T14:43:52.676Z,88.70
2017-10-15T14:46:20.350Z,88.70
2017-10-15T14:48:47.930Z,88.90
2017-10-15T14:51:16.269Z,89.40
2017-10-15T14:53:43.877Z,89.40
2017-10-15T14:56:11.458Z,89.20
2017-10-15T14:58:39.098Z,88.90
2017-10-15T15:01:06.681Z,88.50
2017-10-15T15:03:34.261Z,88.00
2017-10-15T15:06:01.878Z,88.60
2017-10-15T15:08:29.458Z,89.30
2017-10-15T15:10:57.048Z,90.30
2017-10-15T15:13:25.513Z,90.70
2017-10-15T15:15:53.118Z,90.70
2017-10-15T15:18:20.707Z,91.00
2017-10-15T15:20:48.309Z,90.60
2017-10-15T15:23:15.894Z,91.00
2017-10-15T15:25:43.511Z,91.10
2017-10-15T15:28:11.090Z,91.30
2017-10-15T15:30:38.670Z,91.40
2017-10-15T15:33:06.277Z,91.80
2017-10-15T15:35:33.864Z,92.00
2017-10-15T15:38:01.475Z,92.50
2017-10-15T15:40:29.057Z,92.70
2017-10-15T15:42:56.681Z,93.20
2017-10-15T15:45:25.094Z,93.10
2017-10-15T15:47:53.451Z,93.50
2017-10-15T15:50:21.086Z,93.50
2017-10-15T15:52:48.674Z,93.50
2017-10-15T15:55:16.290Z,93.80
2017-10-15T15:57:44.684Z,95.00
2017-10-15T16:00:12.261Z,94.70
2017-10-15T16:02:39.882Z,95.20
2017-10-15T16:05:08.362Z,95.90
2017-10-15T16:07:36.710Z,96.40
2017-10-15T16:10:04.317Z,96.40
2017-10-15T16:12:31.957Z,96.60
2017-10-15T16:15:00.302Z,97.40
2017-10-15T16:17:35.303Z,97.40
2017-10-15T16:20:02.901Z,97.80
2017-10-15T16:22:30.870Z,97.90
2017-10-15T16:24:59.238Z,98.40
2017-10-15T16:27:26.818Z,98.40
2017-10-15T16:29:55.194Z,98.80
2017-10-15T16:32:22.800Z,98.80
2017-10-15T16:34:50.414Z,98.90
2017-10-15T16:37:18.806Z,99.20
2017-10-15T16:39:47.157Z,99.40
2017-10-15T16:42:14.788Z,99.40
2017-10-15T16:44:42.371Z,99.50
2017-10-15T16:47:09.957Z,99.50
2017-10-15T16:49:38.366Z,99.40
2017-10-15T16:52:05.962Z,99.40
2017-10-15T16:54:33.554Z,99.40
2017-10-15T16:57:01.206Z,99.40
2017-10-15T16:59:29.570Z,99.70
2017-10-15T17:01:57.162Z,99.70
2017-10-15T17:04:24.810Z,99.80
2017-10-15T17:06:53.171Z,99.90
2017-10-15T17:09:20.761Z,99.90
2017-10-15T17:11:48.374Z,99.90
2017-10-15T17:14:15.991Z,99.90
2017-10-15T17:16:43.626Z,99.90
2017-10-15T17:19:11.973Z,99.90
2017-10-15T17:21:39.582Z,99.90
2017-10-15T17:24:09.281Z,99.80
2017-10-15T17:26:37.038Z,99.70
2017-10-15T17:29:04.689Z,99.90
2017-10-15T17:31:33.067Z,99.90
2017-10-15T17:34:01.470Z,99.90
2017-10-15T17:36:29.054Z,99.90
2017-10-15T17:38:56.650Z,99.90
2017-10-15T17:41:25.031Z,99.90
2017-10-15T17:43:53.389Z,99.90
2017-10-15T17:46:20.978Z,99.90
2017-10-15T17:48:49.461Z,99.30
2017-10-15T17:51:17.834Z,99.70
2017-10-15T17:53:46.213Z,99.50
2017-10-15T17:56:14.590Z,99.80
2017-10-15T17:58:42.937Z,99.90
2017-10-15T18:01:10.578Z,99.90
2017-10-15T18:03:38.192Z,99.90
2017-10-15T18:06:06.542Z,99.90
2017-10-15T18:08:34.239Z,99.90
2017-10-15T18:11:01.830Z,99.90
2017-10-15T18:13:29.450Z,99.20
2017-10-15T18:15:57.155Z,99.20
2017-10-15T18:18:24.763Z,99.90
2017-10-15T18:20:53.121Z,99.90
2017-10-15T18:23:20.725Z,99.90
2017-10-15T18:25:48.325Z,99.90
2017-10-15T18:28:15.910Z,99.90
2017-10-15T18:30:44.398Z,99.90
2017-10-15T18:33:12.742Z,99.90
2017-10-15T18:35:40.325Z,99.90
2017-10-15T18:38:08.721Z,99.90
2017-10-15T18:40:36.302Z,99.90
2017-10-15T18:43:03.898Z,99.90
2017-10-15T18:45:31.522Z,99.90
2017-10-15T18:47:59.110Z,99.90
2017-10-15T18:50:26.698Z,99.90
2017-10-15T18:52:55.066Z,99.20
2017-10-15T18:55:22.743Z,99.20
2017-10-15T18:57:51.090Z,99.90
2017-10-15T19:00:18.778Z,99.90
2017-10-15T19:02:47.134Z,99.90
2017-10-15T19:05:14.730Z,99.90
2017-10-15T19:07:42.479Z,99.10
2017-10-15T19:10:10.830Z,99.90
2017-10-15T19:12:38.414Z,99.90
2017-10-15T19:15:06.811Z,99.00
2017-10-15T19:17:34.399Z,99.00
2017-10-15T19:20:01.977Z,99.90
2017-10-15T19:22:29.582Z,99.90
2017-10-15T19:24:57.226Z,99.90
2017-10-15T19:27:25.710Z,99.90
2017-10-15T19:29:54.062Z,99.90
2017-10-15T19:32:21.638Z,99.90
2017-10-15T19:34:50.130Z,99.90
2017-10-15T19:37:18.486Z,99.90
2017-10-15T19:39:46.075Z,99.90
2017-10-15T19:42:13.705Z,98.10
2017-10-15T19:44:41.296Z,97.60
2017-10-15T19:47:08.886Z,99.90
2017-10-15T19:49:36.518Z,99.90
2017-10-15T19:52:04.103Z,99.90
2017-10-15T19:54:31.678Z,99.80
2017-10-15T19:56:59.384Z,97.60
2017-10-15T19:59:27.758Z,97.70
2017-10-15T20:01:56.354Z,98.20
2017-10-15T20:04:24.825Z,98.90
2017-10-15T20:06:52.522Z,98.90
2017-10-15T20:09:20.154Z,99.90
2017-10-15T20:11:47.794Z,99.90
2017-10-15T20:14:16.170Z,99.90
2017-10-15T20:16:44.550Z,99.90
2017-10-15T20:19:12.899Z,99.90
2017-10-15T20:21:40.487Z,99.90
2017-10-15T20:24:08.861Z,99.50
2017-10-15T20:26:37.211Z,97.50
2017-10-15T20:29:04.794Z,97.50
2017-10-15T20:31:33.162Z,99.60
2017-10-15T20:34:00.775Z,99.70
2017-10-15T20:36:28.494Z,99.90
2017-10-15T20:38:56.852Z,99.90
2017-10-15T20:41:24.437Z,99.90
2017-10-15T20:43:52.825Z,99.60
2017-10-15T20:46:20.410Z,99.60
2017-10-15T20:48:48.027Z,99.60
2017-10-15T20:51:16.411Z,99.90
2017-10-15T20:53:44.763Z,99.90
2017-10-15T20:56:12.347Z,99.90
2017-10-15T20:58:40.818Z,99.90
2017-10-15T21:01:09.166Z,99.90
2017-10-15T21:03:36.742Z,99.90
2017-10-15T21:06:04.373Z,99.90
2017-10-15T21:08:31.971Z,99.40
2017-10-15T21:11:00.319Z,97.80
2017-10-15T21:13:27.937Z,97.80
2017-10-15T21:15:55.514Z,98.90
2017-10-15T21:18:23.121Z,99.80
2017-10-15T21:20:51.622Z,98.70
2017-10-15T21:23:19.211Z,98.70
2017-10-15T21:25:46.797Z,99.10
2017-10-15T21:28:14.406Z,99.50
2017-10-15T21:30:42.042Z,98.60
2017-10-15T21:33:10.438Z,98.60
2017-10-15T21:35:38.078Z,99.00
2017-10-15T21:38:06.457Z,99.90
2017-10-15T21:40:34.825Z,99.90
2017-10-15T21:43:02.416Z,99.90
2017-10-15T21:45:30.014Z,99.90
2017-10-15T21:47:57.645Z,99.90
2017-10-15T21:50:25.227Z,99.90
2017-10-15T21:52:52.829Z,99.90
2017-10-15T21:55:21.305Z,99.90
2017-10-15T21:57:49.682Z,98.10
2017-10-15T22:00:18.026Z,98.10
2017-10-15T22:02:45.725Z,97.90
2017-10-15T22:05:14.102Z,99.20
2017-10-15T22:07:42.477Z,99.50
2017-10-15T22:10:10.870Z,99.50
2017-10-15T22:12:38.462Z,99.40
2017-10-15T22:15:06.057Z,99.90
2017-10-15T22:17:33.741Z,99.90
2017-10-15T22:20:02.114Z,99.90
2017-10-15T22:22:30.605Z,99.40
2017-10-15T22:24:58.966Z,98.10
2017-10-15T22:27:27.354Z,98.20
2017-10-15T22:29:55.698Z,98.60
